Time;durP1;ratioP1;P1;durP2;ratioP2;P2;SDS_P1;SDS_P2;PMS_P1;PMS_P2;Temp;Humidity;BMP_temperature;BMP_pressure;BME280_temperature;BME280_humidity;BME280_pressure;Samples;Min_cycle;Max_cycle;Signal;HPM_P1;HPM_P2
2022/06/22 00:01:51;;;;;;;9.80;3.90;;;16.90;99.90;;;;;;6246531;23;20422;-81
2022/06/22 00:04:20;;;;;;;4.67;3.30;;;16.80;99.90;;;;;;6218957;23;20408;-81
2022/06/22 00:06:57;;;;;;;6.40;2.60;;;16.70;99.90;;;;;;6246656;23;20374;-81
2022/06/22 00:09:22;;;;;;;3.70;2.83;;;16.70;99.90;;;;;;6219329;23;20375;-81
2022/06/22 00:11:48;;;;;;;7.07;3.40;;;16.60;99.90;;;;;;6220020;23;20393;-81
2022/06/22 00:14:18;;;;;;;4.63;3.03;;;16.60;99.90;;;;;;6218625;23;20178;-82
2022/06/22 00:16:50;;;;;;;8.30;3.03;;;16.50;99.90;;;;;;6219602;23;20167;-81
2022/06/22 00:19:39;;;;;;;6.00;3.23;;;16.50;99.90;;;;;;6246201;23;20362;-81
2022/06/22 00:22:04;;;;;;;7.93;2.80;;;16.50;99.90;;;;;;6219779;22;20507;-81
2022/06/22 00:24:38;;;;;;;9.67;3.90;;;16.40;99.90;;;;;;6219219;23;20441;-81
2022/06/22 00:27:14;;;;;;;7.50;3.47;;;16.40;99.90;;;;;;6218804;23;20142;-81
2022/06/22 00:29:39;;;;;;;7.03;2.73;;;16.40;99.90;;;;;;6220482;23;20367;-81
2022/06/22 00:32:38;;;;;;;4.47;2.70;;;16.40;99.90;;;;;;6219463;22;20397;-81
2022/06/22 00:35:42;;;;;;;5.67;2.50;;;16.40;99.90;;;;;;6179768;23;20167;-81
2022/06/22 00:38:14;;;;;;;8.07;2.93;;;16.40;99.90;;;;;;6245224;23;20409;-81
2022/06/22 00:40:40;;;;;;;3.53;2.77;;;16.40;99.90;;;;;;6219194;23;20807;-81
2022/06/22 00:43:06;;;;;;;6.37;2.67;;;16.40;99.90;;;;;;6218983;23;20415;-81
2022/06/22 00:45:34;;;;;;;7.90;3.17;;;16.40;99.90;;;;;;6219034;23;20166;-81
2022/06/22 00:48:04;;;;;;;6.13;3.10;;;16.40;99.90;;;;;;6246060;23;20408;-81
2022/06/22 00:50:43;;;;;;;4.80;2.77;;;16.30;99.90;;;;;;6245730;23;20423;-81
2022/06/22 00:53:16;;;;;;;3.83;3.10;;;16.30;99.90;;;;;;6218804;23;20859;-81
2022/06/22 00:55:49;;;;;;;5.27;2.93;;;16.30;99.90;;;;;;6219100;23;20794;-81
2022/06/22 00:58:22;;;;;;;6.23;3.20;;;16.30;99.90;;;;;;6217527;23;20370;-81
2022/06/22 01:00:54;;;;;;;6.27;3.07;;;16.30;99.90;;;;;;6246440;23;20436;-80
2022/06/22 01:03:25;;;;;;;5.67;2.80;;;16.20;99.90;;;;;;6244334;22;20492;-81
2022/06/22 01:06:02;;;;;;;10.67;3.87;;;16.10;99.90;;;;;;6218598;23;20371;-80
2022/06/22 01:08:47;;;;;;;7.50;3.20;;;16.10;99.90;;;;;;6245463;23;20385;-82
2022/06/22 01:14:39;;;;;;;4.80;3.37;;;16.00;99.90;;;;;;6245836;23;20355;-81
2022/06/22 01:17:06;;;;;;;6.33;3.97;;;15.90;99.90;;;;;;6245746;23;20366;-81
2022/06/22 01:19:46;;;;;;;5.00;3.90;;;15.80;99.90;;;;;;6217855;23;20543;-80
2022/06/22 01:22:33;;;;;;;5.13;4.03;;;15.80;99.90;;;;;;6245082;22;20428;-82
2022/06/22 01:25:17;;;;;;;5.20;3.80;;;15.70;99.90;;;;;;6219142;23;20393;-80
2022/06/22 01:27:44;;;;;;;7.00;4.03;;;15.60;99.90;;;;;;6245278;23;20472;-81
2022/06/22 01:30:22;;;;;;;5.07;3.80;;;15.60;99.90;;;;;;6219251;23;20782;-81
2022/06/22 01:32:48;;;;;;;4.63;3.77;;;15.60;1.00;;;;;;6245921;22;20388;-81
2022/06/22 01:35:25;;;;;;;6.17;4.03;;;15.60;1.00;;;;;;6245583;23;20374;-81
2022/06/22 01:37:51;;;;;;;5.30;4.00;;;15.60;1.00;;;;;;6245936;23;20811;-80
2022/06/22 01:40:18;;;;;;;9.70;4.17;;;15.60;1.00;;;;;;6244345;23;20405;-81
2022/06/22 01:43:01;;;;;;;6.30;3.73;;;15.60;1.00;;;;;;6246297;22;20174;-81
2022/06/22 01:45:29;;;;;;;6.10;4.47;;;15.60;1.00;;;;;;6245853;23;20766;-82
2022/06/22 01:48:31;;;;;;;6.83;3.40;;;15.60;1.00;;;;;;6246926;23;20380;-81
2022/06/22 01:51:17;;;;;;;4.90;3.60;;;15.60;1.00;;;;;;6220739;23;20443;-81
2022/06/22 01:53:59;;;;;;;5.30;4.07;;;15.50;1.00;;;;;;6221506;23;20457;-81
2022/06/22 01:56:39;;;;;;;7.10;4.20;;;15.50;1.00;;;;;;6221157;23;20404;-81
2022/06/22 01:59:13;;;;;;;12.00;4.10;;;15.40;1.00;;;;;;6221300;23;21080;-81
2022/06/22 02:01:42;;;;;;;4.60;4.13;;;15.40;1.00;;;;;;6220747;23;20466;-81
2022/06/22 02:04:53;;;;;;;6.10;4.13;;;15.40;1.00;;;;;;6246777;22;20521;-81
2022/06/22 02:07:45;;;;;;;4.77;3.90;;;15.40;1.00;;;;;;6239859;23;20853;-80
2022/06/22 02:10:28;;;;;;;6.70;4.20;;;15.40;1.00;;;;;;6247897;23;20671;-81
2022/06/22 02:13:06;;;;;;;6.80;4.27;;;15.30;1.00;;;;;;6220041;23;20417;-81
2022/06/22 02:15:49;;;;;;;13.60;4.60;;;15.30;1.00;;;;;;6247958;23;20673;-81
2022/06/22 02:18:20;;;;;;;5.83;4.10;;;15.20;1.00;;;;;;6247642;23;20731;-82
2022/06/22 02:20:46;;;;;;;6.30;3.87;;;15.20;1.00;;;;;;6220819;23;20372;-81
2022/06/22 02:23:24;;;;;;;5.93;4.37;;;15.20;1.00;;;;;;6247370;22;20407;-81
2022/06/22 02:26:05;;;;;;;5.70;4.80;;;15.20;1.00;;;;;;6248008;23;20410;-81
2022/06/22 02:28:31;;;;;;;6.83;3.93;;;15.20;1.00;;;;;;6247276;23;20415;-80
2022/06/22 02:30:58;;;;;;;6.97;4.30;;;15.10;1.00;;;;;;6247618;23;20416;-81
2022/06/22 02:33:23;;;;;;;4.80;4.10;;;15.10;1.00;;;;;;6247190;22;20240;-80
2022/06/22 02:35:50;;;;;;;7.13;4.30;;;15.10;1.00;;;;;;6221136;23;20384;-80
2022/06/22 02:38:16;;;;;;;4.87;4.07;;;15.10;1.00;;;;;;6220071;23;20209;-81
2022/06/22 02:46:20;;;;;;;5.07;4.30;;;15.00;1.00;;;;;;6246405;23;20415;-81
2022/06/22 02:48:52;;;;;;;6.97;4.50;;;15.00;1.00;;;;;;6220346;23;20396;-80
2022/06/22 02:51:25;;;;;;;10.80;4.83;;;15.00;1.00;;;;;;6246902;23;20421;-82
2022/06/22 02:53:52;;;;;;;5.67;4.37;;;15.00;1.00;;;;;;6220673;23;20455;-81
2022/06/22 02:56:25;;;;;;;4.43;4.03;;;15.00;1.00;;;;;;6247076;23;20374;-81
2022/06/22 02:58:51;;;;;;;8.27;4.50;;;15.00;16.30;;;;;;6246830;23;20680;-82
2022/06/22 03:01:20;;;;;;;8.67;4.73;;;15.00;49.60;;;;;;6247222;23;20453;-81
2022/06/22 03:03:58;;;;;;;5.33;4.73;;;15.00;55.30;;;;;;6247024;22;20221;-80
2022/06/22 03:06:31;;;;;;;9.00;4.63;;;15.00;73.80;;;;;;6220143;23;20403;-81
2022/06/22 03:09:00;;;;;;;5.80;4.77;;;15.00;64.80;;;;;;6246997;23;20476;-81
2022/06/22 03:11:26;;;;;;;8.80;4.93;;;15.00;60.20;;;;;;6246868;23;20481;-80
2022/06/22 03:13:56;;;;;;;6.63;5.23;;;15.00;71.10;;;;;;6246166;22;20388;-80
2022/06/22 03:16:33;;;;;;;6.93;4.70;;;14.90;93.00;;;;;;6219895;23;20384;-80
2022/06/22 03:19:03;;;;;;;6.63;4.80;;;15.00;99.90;;;;;;6246208;23;20357;-81
2022/06/22 03:21:29;;;;;;;6.20;5.07;;;15.00;99.10;;;;;;6219275;23;20382;-81
2022/06/22 03:24:06;;;;;;;5.67;4.27;;;15.00;91.80;;;;;;6245935;22;20398;-81
2022/06/22 03:26:38;;;;;;;7.50;4.90;;;15.00;99.90;;;;;;6219300;23;20160;-81
2022/06/22 03:29:32;;;;;;;5.60;4.50;;;15.00;99.90;;;;;;6246459;23;20371;-80
2022/06/22 03:32:19;;;;;;;8.60;5.30;;;15.00;94.30;;;;;;6240917;22;20573;-81
2022/06/22 03:34:54;;;;;;;8.17;5.00;;;15.10;67.70;;;;;;6220292;23;20385;-81
2022/06/22 03:37:30;;;;;;;6.70;4.20;;;15.10;51.50;;;;;;6218458;23;20379;-80
2022/06/22 03:40:01;;;;;;;8.10;5.27;;;15.10;52.20;;;;;;6219844;23;20379;-81
2022/06/22 03:42:30;;;;;;;7.87;5.10;;;15.10;24.20;;;;;;6218954;23;20408;-81
2022/06/22 03:45:15;;;;;;;5.23;4.73;;;15.10;20.00;;;;;;6247289;23;20380;-81
2022/06/22 03:48:11;;;;;;;7.90;5.60;;;15.20;39.20;;;;;;6246971;23;20418;-81
2022/06/22 03:50:46;;;;;;;8.23;5.40;;;15.20;38.90;;;;;;6219862;23;20900;-81
2022/06/22 03:53:33;;;;;;;15.30;5.80;;;15.30;25.80;;;;;;6219788;23;20435;-80
2022/06/22 03:56:04;;;;;;;9.17;5.40;;;15.30;15.20;;;;;;6219297;23;20415;-81
2022/06/22 03:58:29;;;;;;;9.77;5.70;;;15.40;3.60;;;;;;6246755;23;20369;-80
2022/06/22 04:00:55;;;;;;;10.83;4.60;;;15.50;1.00;;;;;;6247164;23;20372;-81
2022/06/22 04:03:21;;;;;;;5.37;4.87;;;15.60;1.00;;;;;;6246664;22;20199;-81
2022/06/22 04:05:50;;;;;;;10.80;5.70;;;15.70;1.00;;;;;;6220366;23;20159;-81
2022/06/22 04:08:29;;;;;;;7.57;5.60;;;15.70;1.00;;;;;;6245815;23;20151;-81
2022/06/22 04:11:05;;;;;;;7.37;5.93;;;15.80;1.00;;;;;;6218681;23;20424;-80
2022/06/22 04:13:41;;;;;;;8.27;5.30;;;15.80;1.00;;;;;;6246142;22;20397;-80
2022/06/22 04:16:15;;;;;;;9.43;5.77;;;15.90;1.00;;;;;;6246197;23;20746;-81
2022/06/22 04:18:56;;;;;;;11.83;5.63;;;16.00;1.00;;;;;;6246276;23;20361;-80
2022/06/22 04:21:36;;;;;;;7.67;5.80;;;16.00;1.00;;;;;;6219390;23;20391;-81
2022/06/22 04:24:16;;;;;;;6.30;5.53;;;16.10;1.00;;;;;;6220134;23;20410;-81
2022/06/22 04:26:48;;;;;;;9.40;5.40;;;16.10;1.00;;;;;;6218255;23;20475;-81
2022/06/22 04:29:22;;;;;;;9.60;6.23;;;16.10;1.00;;;;;;6219368;23;20381;-81
2022/06/22 04:31:58;;;;;;;7.00;6.10;;;16.10;1.00;;;;;;6246123;23;20415;-81
2022/06/22 04:34:41;;;;;;;12.13;5.77;;;16.20;1.00;;;;;;6246046;23;20434;-82
2022/06/22 04:37:30;;;;;;;7.47;5.20;;;16.10;1.00;;;;;;6219375;23;20379;-81
2022/06/22 04:40:23;;;;;;;13.93;6.37;;;16.20;1.00;;;;;;6219157;23;20422;-81
2022/06/22 04:42:56;;;;;;;9.70;5.60;;;16.20;1.00;;;;;;6219096;23;20501;-81
2022/06/22 04:45:29;;;;;;;7.40;6.40;;;16.30;1.00;;;;;;6219730;23;20374;-81
2022/06/22 04:48:00;;;;;;;7.70;5.43;;;16.50;1.00;;;;;;6218938;23;20449;-81
2022/06/22 04:50:26;;;;;;;7.27;6.20;;;16.70;1.00;;;;;;6245971;23;20396;-80
2022/06/22 04:52:55;;;;;;;6.30;5.23;;;16.90;1.00;;;;;;6219012;23;20899;-82
2022/06/22 04:55:25;;;;;;;8.90;6.00;;;17.10;1.00;;;;;;6219072;23;20421;-81
2022/06/22 04:57:56;;;;;;;11.83;5.67;;;17.30;1.00;;;;;;6219937;23;20699;-81
2022/06/22 05:00:26;;;;;;;8.50;5.80;;;17.50;1.00;;;;;;6246312;23;20459;-81
2022/06/22 05:03:05;;;;;;;8.10;5.70;;;17.60;99.90;;;;;;6244569;22;20415;-81
2022/06/22 05:05:34;;;;;;;8.30;5.90;;;17.70;99.90;;;;;;6194744;23;20510;-83
2022/06/22 05:08:38;;;;;;;9.33;6.00;;;17.90;99.90;;;;;;6217936;23;20389;-83
2022/06/22 05:11:15;;;;;;;10.93;5.53;;;18.00;99.90;;;;;;6175851;23;20483;-79
2022/06/22 05:13:47;;;;;;;13.50;6.43;;;18.10;99.90;;;;;;6203474;23;20393;-80
2022/06/22 05:16:20;;;;;;;10.67;7.20;;;18.30;99.90;;;;;;6221693;23;20467;-79
2022/06/22 05:18:49;;;;;;;15.67;5.80;;;18.40;99.90;;;;;;6223252;23;20803;-79
2022/06/22 05:21:39;;;;;;;9.87;5.83;;;18.40;99.90;;;;;;6223705;23;20476;-81
2022/06/22 05:24:12;;;;;;;10.27;6.67;;;18.50;99.90;;;;;;6222021;23;20467;-81
2022/06/22 05:26:39;;;;;;;11.67;6.80;;;18.50;99.90;;;;;;6222730;23;20362;-79
2022/06/22 05:29:10;;;;;;;9.80;5.80;;;18.50;99.90;;;;;;6221969;23;20396;-81
2022/06/22 05:31:39;;;;;;;10.10;6.20;;;18.60;99.90;;;;;;6223118;23;20432;-81
2022/06/22 05:34:14;;;;;;;17.07;6.23;;;18.80;99.90;;;;;;6224132;23;20397;-79
2022/06/22 05:36:48;;;;;;;10.17;6.63;;;18.90;99.90;;;;;;6227040;23;20372;-80
2022/06/22 05:39:14;;;;;;;10.63;6.00;;;19.20;99.90;;;;;;6228938;23;20364;-80
2022/06/22 05:41:45;;;;;;;9.00;5.77;;;19.40;99.90;;;;;;6228344;23;20393;-80
2022/06/22 05:44:13;;;;;;;15.23;6.60;;;19.70;99.90;;;;;;6228535;23;20395;-81
2022/06/22 05:46:53;;;;;;;9.03;5.80;;;19.90;99.90;;;;;;6228279;23;20412;-80
2022/06/22 05:49:21;;;;;;;10.00;6.10;;;20.20;99.90;;;;;;6228816;23;20363;-80
2022/06/22 05:52:00;;;;;;;8.73;6.17;;;20.40;99.90;;;;;;6227966;23;20745;-81
2022/06/22 05:54:43;;;;;;;9.50;5.73;;;20.50;99.90;;;;;;6228396;23;20412;-79
2022/06/22 05:57:17;;;;;;;9.33;5.73;;;20.60;99.90;;;;;;6228566;23;20392;-80
2022/06/22 05:59:52;;;;;;;7.97;6.10;;;20.70;99.90;;;;;;6227633;23;20374;-80
2022/06/22 06:02:34;;;;;;;10.13;5.60;;;20.70;99.90;;;;;;6226773;23;20358;-80
2022/06/22 06:05:12;;;;;;;8.73;6.80;;;20.80;99.90;;;;;;6223514;23;20853;-79
2022/06/22 06:07:48;;;;;;;9.87;6.00;;;20.90;99.90;;;;;;6224231;23;20375;-80
2022/06/22 06:10:36;;;;;;;7.30;6.57;;;21.20;99.90;;;;;;6224738;23;20372;-80
2022/06/22 06:13:19;;;;;;;10.43;6.23;;;21.70;99.90;;;;;;6223512;23;20394;-79
2022/06/22 06:15:47;;;;;;;7.93;5.17;;;22.50;99.90;;;;;;6225203;23;20857;-82
2022/06/22 06:18:17;;;;;;;9.63;4.80;;;24.10;99.90;;;;;;6225846;23;20452;-79
2022/06/22 06:20:50;;;;;;;7.10;4.20;;;28.00;99.90;;;;;;6225880;23;20377;-82
2022/06/22 06:23:39;;;;;;;5.40;4.10;;;32.90;99.90;;;;;;6225836;23;20392;-80
2022/06/22 06:29:19;;;;;;;5.20;3.67;;;38.50;99.90;;;;;;6225033;23;20357;-82
2022/06/22 06:32:22;;;;;;;6.80;3.93;;;41.60;99.90;;;;;;6224952;23;20632;-81
2022/06/22 06:35:01;;;;;;;9.43;3.70;;;43.90;99.90;;;;;;6223915;23;20461;-81
2022/06/22 06:37:38;;;;;;;9.97;3.90;;;44.80;99.90;;;;;;6222505;23;20369;-82
2022/06/22 06:40:04;;;;;;;4.67;3.37;;;45.50;99.90;;;;;;6220853;23;20384;-82
2022/06/22 06:42:40;;;;;;;6.70;2.87;;;47.10;99.90;;;;;;6221053;23;20430;-80
2022/06/22 06:45:17;;;;;;;8.37;3.50;;;48.00;99.90;;;;;;6222207;23;20419;-80
2022/06/22 06:47:51;;;;;;;5.13;3.17;;;49.00;99.90;;;;;;6222404;23;20368;-80
2022/06/22 06:50:37;;;;;;;6.20;3.30;;;49.90;99.40;;;;;;6223180;23;20378;-81
2022/06/22 06:53:33;;;;;;;4.03;2.90;;;50.70;94.40;;;;;;6225983;23;20372;-82
2022/06/22 06:56:06;;;;;;;4.83;2.70;;;51.90;90.70;;;;;;6222213;23;20390;-82
2022/06/22 06:59:00;;;;;;;5.53;2.77;;;52.30;83.20;;;;;;6223927;23;20138;-81
2022/06/22 07:01:31;;;;;;;3.80;3.03;;;53.50;77.70;;;;;;6214567;23;20181;-81
2022/06/22 07:04:02;;;;;;;5.28;3.00;;;55.10;75.60;;;;;;6220688;23;20262;-81
2022/06/22 07:06:29;;;;;;;8.02;3.03;;;56.40;72.60;;;;;;6222851;23;20732;-81
2022/06/22 07:09:00;;;;;;;7.10;2.83;;;58.00;69.60;;;;;;6224015;23;20145;-81
2022/06/22 07:11:37;;;;;;;5.10;2.47;;;59.30;68.10;;;;;;6224985;23;20144;-81
2022/06/22 07:14:13;;;;;;;8.73;2.67;;;59.90;63.30;;;;;;6224346;23;20180;-82
2022/06/22 07:16:39;;;;;;;4.65;2.70;;;60.60;60.20;;;;;;6224702;23;20136;-81
2022/06/22 07:19:16;;;;;;;8.55;3.03;;;61.60;59.60;;;;;;6226152;23;20153;-81
2022/06/22 07:22:07;;;;;;;4.38;2.40;;;62.50;59.90;;;;;;6224927;23;20519;-81
2022/06/22 07:24:35;;;;;;;3.65;2.85;;;63.20;59.10;;;;;;6224441;23;20227;-83
2022/06/22 07:27:33;;;;;;;4.13;2.38;;;62.20;54.20;;;;;;6223493;23;20149;-82
2022/06/22 07:30:22;;;;;;;5.57;2.80;;;62.10;51.10;;;;;;6223538;23;20161;-83
2022/06/22 07:32:53;;;;;;;6.43;3.08;;;61.10;45.60;;;;;;6204609;23;20188;-82
2022/06/22 07:35:36;;;;;;;5.90;2.70;;;60.60;56.50;;;;;;6225517;23;20145;-82
2022/06/22 07:38:29;;;;;;;2.60;2.00;;;60.30;40.80;;;;;;6222656;23;20165;-82
2022/06/22 07:43:40;;;;;;;5.18;2.92;;;60.40;38.50;;;;;;6223974;23;20176;-82
2022/06/22 07:46:09;;;;;;;3.95;2.30;;;61.30;39.70;;;;;;6225094;23;20491;-83
2022/06/22 07:48:41;;;;;;;4.63;2.03;;;61.00;38.00;;;;;;6224904;23;20148;-82
2022/06/22 07:51:13;;;;;;;7.50;2.20;;;60.80;36.10;;;;;;6224244;23;20738;-80
2022/06/22 07:53:46;;;;;;;6.25;2.60;;;60.80;35.90;;;;;;6224844;23;20231;-82
2022/06/22 07:56:39;;;;;;;2.58;2.35;;;60.60;34.40;;;;;;6225093;23;20571;-82
2022/06/22 07:59:12;;;;;;;10.10;2.78;;;59.80;31.00;;;;;;6222819;23;20145;-82
2022/06/22 08:01:41;;;;;;;7.30;2.65;;;58.70;28.60;;;;;;6225145;23;20579;-82
2022/06/22 08:04:09;;;;;;;6.68;2.70;;;57.80;27.60;;;;;;6224666;23;20575;-83
2022/06/22 08:07:08;;;;;;;5.00;2.50;;;58.80;28.90;;;;;;6225580;23;20160;-83
2022/06/22 08:09:54;;;;;;;4.95;2.03;;;58.90;28.10;;;;;;6220195;23;20190;-82
2022/06/22 08:12:51;;;;;;;5.38;2.03;;;58.40;38.80;;;;;;6224947;23;20169;-82
2022/06/22 08:15:19;;;;;;;2.28;1.95;;;58.40;26.80;;;;;;6224523;23;20228;-82
2022/06/22 08:17:52;;;;;;;6.53;2.00;;;58.10;25.90;;;;;;6223517;23;20172;-82
2022/06/22 08:20:25;;;;;;;5.60;1.98;;;58.30;25.90;;;;;;6222638;23;20145;-81
2022/06/22 08:22:53;;;;;;;4.65;2.60;;;58.40;26.20;;;;;;6224238;23;20366;-82
2022/06/22 08:25:20;;;;;;;5.72;2.17;;;58.70;26.70;;;;;;6224886;23;20157;-82
2022/06/22 08:27:46;;;;;;;4.63;2.10;;;58.70;26.10;;;;;;6226506;23;20611;-83
2022/06/22 08:30:14;;;;;;;3.45;2.17;;;58.30;25.00;;;;;;6227390;23;20171;-83
2022/06/22 08:32:51;;;;;;;3.00;1.52;;;57.20;23.00;;;;;;6227161;23;20173;-83
2022/06/22 08:35:26;;;;;;;5.45;2.17;;;57.30;23.00;;;;;;6226829;23;20133;-83
2022/06/22 08:38:17;;;;;;;5.85;2.92;;;57.40;23.10;;;;;;6227612;23;20152;-82
2022/06/22 08:40:53;;;;;;;2.92;1.63;;;57.30;22.40;;;;;;6214238;23;20164;-82
2022/06/22 08:43:49;;;;;;;3.92;1.90;;;57.10;21.90;;;;;;6232091;23;20168;-83
2022/06/22 08:46:42;;;;;;;4.45;2.05;;;57.30;22.00;;;;;;6231967;23;20172;-83
2022/06/22 08:49:22;;;;;;;3.45;1.60;;;57.80;22.80;;;;;;6233752;23;20142;-82
2022/06/22 08:52:03;;;;;;;6.72;1.90;;;56.80;21.20;;;;;;6225028;23;20302;-81
2022/06/22 08:54:34;;;;;;;2.58;1.58;;;56.60;20.70;;;;;;6227235;23;20168;-81
2022/06/22 08:57:21;;;;;;;3.33;1.98;;;56.70;20.40;;;;;;6224021;23;20143;-81
2022/06/22 08:59:50;;;;;;;5.45;1.65;;;56.70;20.20;;;;;;6225778;23;20618;-83
2022/06/22 09:02:52;;;;;;;3.70;1.80;;;56.80;20.00;;;;;;6225526;23;20149;-81
2022/06/22 09:05:25;;;;;;;2.35;1.48;;;56.00;18.50;;;;;;6193914;23;20141;-81
2022/06/22 09:08:09;;;;;;;9.27;1.88;;;55.80;18.00;;;;;;6194321;23;20142;-81
2022/06/22 09:11:07;;;;;;;2.80;1.50;;;55.70;17.40;;;;;;6195537;23;20138;-81
2022/06/22 09:13:54;;;;;;;3.40;2.15;;;55.50;17.30;;;;;;6195041;23;20208;-81
2022/06/22 09:16:44;;;;;;;2.90;1.50;;;54.80;15.60;;;;;;6195438;23;20165;-81
2022/06/22 09:19:28;;;;;;;3.33;1.60;;;55.00;16.40;;;;;;6195668;23;20168;-82
2022/06/22 09:22:03;;;;;;;3.30;1.97;;;54.10;15.20;;;;;;6194101;23;20154;-81
2022/06/22 09:25:01;;;;;;;6.83;2.53;;;54.10;14.50;;;;;;6169671;23;20173;-81
2022/06/22 09:27:43;;;;;;;2.87;1.40;;;53.70;13.90;;;;;;6192782;23;20508;-81
2022/06/22 09:30:28;;;;;;;6.10;1.60;;;53.30;13.90;;;;;;6195156;23;20224;-82
2022/06/22 09:33:32;;;;;;;3.67;1.30;;;52.80;13.30;;;;;;6194710;23;20138;-81
2022/06/22 09:36:13;;;;;;;6.43;1.77;;;52.00;12.00;;;;;;6194388;23;20364;-81
2022/06/22 09:38:46;;;;;;;2.37;1.50;;;51.90;12.00;;;;;;6195164;23;20448;-80
2022/06/22 09:41:43;;;;;;;3.90;1.70;;;52.20;13.20;;;;;;6168560;23;20764;-80
2022/06/22 09:44:34;;;;;;;5.13;1.73;;;52.00;12.70;;;;;;6194370;23;20393;-81
2022/06/22 09:47:30;;;;;;;3.50;1.73;;;51.90;12.20;;;;;;6193661;23;20444;-82
2022/06/22 09:50:14;;;;;;;3.77;1.77;;;51.80;12.10;;;;;;6193425;23;20368;-80
2022/06/22 09:53:07;;;;;;;2.53;1.53;;;51.30;11.60;;;;;;6194639;23;20416;-81
2022/06/22 09:58:48;;;;;;;7.53;1.90;;;50.40;10.10;;;;;;6196673;23;20392;-80
2022/06/22 10:01:26;;;;;;;2.57;1.40;;;49.80;9.60;;;;;;6195250;23;20373;-81
2022/06/22 10:04:17;;;;;;;9.37;1.50;;;50.00;9.90;;;;;;6195623;23;20405;-80
2022/06/22 10:07:01;;;;;;;3.40;1.93;;;49.80;10.30;;;;;;6195321;23;20377;-81
2022/06/22 10:09:51;;;;;;;4.60;1.90;;;49.60;10.10;;;;;;6196623;23;20365;-81
2022/06/22 10:12:43;;;;;;;4.40;1.97;;;49.50;10.60;;;;;;6195000;23;20417;-80
2022/06/22 10:15:22;;;;;;;3.50;1.43;;;48.60;9.50;;;;;;6195558;23;20409;-81
2022/06/22 10:18:27;;;;;;;5.17;1.83;;;48.30;9.50;;;;;;6194842;23;20464;-81
2022/06/22 10:21:15;;;;;;;3.47;1.70;;;48.30;9.80;;;;;;6196533;23;20362;-80
2022/06/22 10:23:50;;;;;;;3.37;1.50;;;48.00;10.00;;;;;;6197067;23;20389;-80
2022/06/22 10:26:34;;;;;;;3.37;1.60;;;47.00;9.10;;;;;;6220495;23;20413;-80
2022/06/22 10:29:10;;;;;;;4.07;1.60;;;46.80;8.90;;;;;;6194962;23;20384;-81
2022/06/22 10:31:54;;;;;;;4.23;1.53;;;47.20;10.20;;;;;;6197614;23;20413;-81
2022/06/22 10:34:27;;;;;;;4.23;1.80;;;47.40;11.00;;;;;;6196550;23;20476;-81
2022/06/22 10:37:17;;;;;;;5.30;1.77;;;47.10;10.40;;;;;;6197193;23;20354;-81
2022/06/22 10:40:06;;;;;;;5.90;1.97;;;47.00;19.60;;;;;;6197422;23;20388;-82
2022/06/22 10:45:45;;;;;;;5.70;1.80;;;46.30;9.30;;;;;;6196974;23;20870;-82
2022/06/22 10:48:27;;;;;;;2.90;1.70;;;46.70;10.90;;;;;;6199013;23;20377;-81
2022/06/22 10:51:11;;;;;;;5.90;2.10;;;47.30;12.00;;;;;;6199800;23;20413;-82
2022/06/22 10:54:07;;;;;;;3.00;1.90;;;46.60;11.40;;;;;;6199597;23;20417;-81
2022/06/22 10:56:57;;;;;;;7.20;2.47;;;46.20;9.40;;;;;;6198917;23;20374;-82
2022/06/22 10:59:31;;;;;;;4.23;1.93;;;46.20;9.70;;;;;;6196698;23;20358;-82
2022/06/22 11:02:26;;;;;;;2.43;1.87;;;46.40;10.10;;;;;;6196423;23;20365;-82
2022/06/22 11:05:08;;;;;;;2.57;1.80;;;46.60;10.60;;;;;;6223563;23;20463;-83
2022/06/22 11:07:39;;;;;;;3.10;1.83;;;46.40;10.80;;;;;;6227979;23;20392;-82
2022/06/22 11:10:33;;;;;;;3.53;1.90;;;45.80;9.70;;;;;;6225722;23;20385;-82
2022/06/22 11:13:16;;;;;;;4.60;2.70;;;45.90;9.70;;;;;;6225189;23;20385;-83
2022/06/22 11:16:16;;;;;;;4.60;2.13;;;45.30;8.80;;;;;;6226512;23;20354;-84
2022/06/22 11:19:03;;;;;;;3.60;1.90;;;45.10;8.70;;;;;;6224802;23;20377;-82
2022/06/22 11:21:48;;;;;;;5.73;2.27;;;44.10;7.50;;;;;;6226290;23;20388;-83
2022/06/22 11:24:23;;;;;;;3.00;1.80;;;44.20;7.40;;;;;;6228161;23;20399;-82
2022/06/22 11:33:17;;;;;;;4.33;1.60;;;45.20;10.50;;;;;;6225376;23;20428;-82
2022/06/22 11:35:45;;;;;;;5.10;2.33;;;45.00;10.20;;;;;;6223147;23;20713;-81
2022/06/22 11:38:20;;;;;;;3.20;1.70;;;44.90;9.90;;;;;;6226806;23;20565;-82
2022/06/22 11:41:19;;;;;;;5.90;1.90;;;44.80;9.90;;;;;;6225735;23;20769;-82
2022/06/22 11:44:28;;;;;;;4.13;2.03;;;45.00;10.80;;;;;;6197169;23;20796;-81
2022/06/22 11:47:23;;;;;;;4.27;2.23;;;45.40;11.30;;;;;;6172893;23;20753;-81
2022/06/22 11:50:08;;;;;;;3.20;1.80;;;45.00;10.00;;;;;;6225111;23;20428;-83
2022/06/22 11:52:59;;;;;;;5.57;2.00;;;44.00;8.00;;;;;;6223799;23;20420;-82
2022/06/22 11:55:31;;;;;;;4.20;1.67;;;44.10;8.20;;;;;;6225299;23;20360;-83
2022/06/22 11:58:25;;;;;;;4.80;2.00;;;44.20;8.40;;;;;;6222787;23;20462;-81
2022/06/22 12:01:10;;;;;;;6.00;1.80;;;44.30;7.90;;;;;;6223884;23;20450;-82
2022/06/22 12:04:00;;;;;;;2.87;1.43;;;44.10;7.60;;;;;;6225130;23;20926;-83
2022/06/22 12:06:47;;;;;;;2.07;1.53;;;43.90;6.70;;;;;;6223322;23;20389;-82
2022/06/22 12:09:36;;;;;;;2.60;1.13;;;43.00;5.20;;;;;;6223726;23;20357;-82
2022/06/22 12:12:20;;;;;;;2.60;1.40;;;42.80;5.10;;;;;;6225494;23;20419;-82
2022/06/22 12:15:07;;;;;;;2.27;1.50;;;42.60;4.80;;;;;;6224407;23;20453;-82
2022/06/22 12:17:36;;;;;;;3.83;1.97;;;42.60;5.20;;;;;;6226413;23;20384;-82
2022/06/22 12:20:26;;;;;;;1.57;1.20;;;42.70;5.90;;;;;;6224181;23;20452;-81
2022/06/22 12:23:10;;;;;;;4.70;1.87;;;42.80;6.70;;;;;;6250089;23;20408;-82
2022/06/22 12:26:15;;;;;;;2.63;1.97;;;42.70;6.00;;;;;;6224885;23;20366;-81
2022/06/22 12:28:55;;;;;;;1.80;1.23;;;42.00;4.10;;;;;;6225056;23;20357;-82
2022/06/22 12:31:24;;;;;;;2.83;1.70;;;42.00;4.60;;;;;;6224560;23;20416;-82
2022/06/22 12:34:09;;;;;;;3.30;1.83;;;42.10;5.10;;;;;;6224295;23;20389;-83
2022/06/22 12:36:42;;;;;;;6.87;2.03;;;41.80;4.30;;;;;;6224189;23;20360;-83
2022/06/22 12:39:19;;;;;;;3.37;1.63;;;41.60;4.10;;;;;;6223027;23;20698;-82
2022/06/22 12:42:13;;;;;;;2.70;1.53;;;41.10;3.30;;;;;;6224505;23;20719;-82
2022/06/22 12:44:51;;;;;;;10.30;1.90;;;40.70;3.00;;;;;;6223025;23;20730;-82
2022/06/22 12:47:26;;;;;;;2.87;1.60;;;40.40;4.00;;;;;;6223045;23;20388;-83
2022/06/22 12:50:19;;;;;;;3.37;1.90;;;39.90;2.90;;;;;;6226751;23;20377;-82
2022/06/22 12:52:51;;;;;;;4.30;1.60;;;39.50;2.70;;;;;;6224601;23;20416;-82
2022/06/22 12:55:26;;;;;;;5.07;1.87;;;39.00;1.80;;;;;;6229401;23;20365;-82
2022/06/22 12:58:00;;;;;;;3.60;1.67;;;38.60;1.80;;;;;;6228196;23;20894;-82
2022/06/22 13:00:26;;;;;;;3.43;1.83;;;38.50;1.60;;;;;;6227867;23;20389;-82
2022/06/22 13:02:58;;;;;;;5.17;1.80;;;38.40;2.00;;;;;;6228057;23;20431;-81
2022/06/22 13:05:29;;;;;;;3.83;1.60;;;38.40;2.50;;;;;;6228727;23;20365;-82
2022/06/22 13:07:57;;;;;;;4.83;2.40;;;38.50;3.20;;;;;;6228026;23;20365;-82
2022/06/22 13:10:25;;;;;;;3.80;1.70;;;38.60;3.90;;;;;;6226311;23;20389;-82
2022/06/22 13:12:57;;;;;;;2.57;1.53;;;38.50;4.10;;;;;;6227176;23;20416;-82
2022/06/22 13:15:38;;;;;;;8.40;1.67;;;38.20;3.80;;;;;;6227872;23;20358;-82
2022/06/22 13:18:24;;;;;;;3.50;1.30;;;38.40;4.20;;;;;;6226918;23;20433;-81
2022/06/22 13:21:20;;;;;;;3.20;2.37;;;38.50;5.30;;;;;;6228730;23;20432;-79
2022/06/22 13:24:19;;;;;;;3.83;1.90;;;37.60;3.90;;;;;;6225735;23;20409;-81
2022/06/22 13:26:48;;;;;;;2.47;1.63;;;36.90;2.90;;;;;;6227366;23;20468;-79
2022/06/22 13:29:53;;;;;;;3.47;1.70;;;36.70;3.80;;;;;;6226107;23;20729;-81
2022/06/22 13:32:22;;;;;;;3.57;1.47;;;36.90;4.70;;;;;;6226565;23;20438;-81
2022/06/22 13:34:59;;;;;;;11.23;1.60;;;37.00;5.50;;;;;;6226571;23;20397;-82
2022/06/22 13:38:03;;;;;;;2.80;1.67;;;37.30;6.20;;;;;;6227536;23;20364;-81
2022/06/22 13:40:59;;;;;;;3.43;2.03;;;37.30;6.20;;;;;;6227733;23;20353;-81
2022/06/22 13:43:54;;;;;;;4.20;1.77;;;37.20;6.20;;;;;;6230903;23;20400;-81
2022/06/22 13:46:30;;;;;;;2.30;1.63;;;36.90;5.60;;;;;;6229079;23;20372;-81
2022/06/22 13:49:02;;;;;;;4.27;1.60;;;36.80;6.10;;;;;;6230123;23;20428;-81
2022/06/22 13:51:51;;;;;;;6.03;1.63;;;36.50;5.70;;;;;;6227795;23;20427;-81
2022/06/22 13:54:37;;;;;;;2.20;1.37;;;35.70;4.90;;;;;;6231536;23;20399;-81
2022/06/22 13:57:21;;;;;;;2.33;1.50;;;35.30;4.30;;;;;;6228328;23;20399;-82
2022/06/22 13:59:51;;;;;;;4.47;1.70;;;35.00;14.00;;;;;;6227552;23;20431;-82
2022/06/22 14:02:31;;;;;;;2.70;1.87;;;34.80;4.90;;;;;;6228320;23;20380;-81
2022/06/22 14:05:10;;;;;;;2.77;1.43;;;34.50;3.60;;;;;;6228258;23;20451;-82
2022/06/22 14:07:51;;;;;;;6.13;1.50;;;34.10;4.00;;;;;;6228127;23;20745;-82
2022/06/22 14:10:43;;;;;;;2.00;1.47;;;33.80;3.80;;;;;;6226699;23;20452;-81
2022/06/22 14:13:39;;;;;;;3.00;1.70;;;33.50;3.70;;;;;;6213684;23;20392;-81
2022/06/22 14:16:18;;;;;;;2.50;1.53;;;33.10;4.10;;;;;;6226549;23;20369;-80
2022/06/22 14:19:07;;;;;;;6.23;1.80;;;33.10;99.90;;;;;;6226415;23;20361;-80